Time;durP1;ratioP1;P1;durP2;ratioP2;P2;SDS_P1;SDS_P2;PMS_P1;PMS_P2;Temp;Humidity;BMP_temperature;BMP_pressure;BME280_temperature;BME280_humidity;BME280_pressure;Samples;Min_cycle;Max_cycle;Signal;HPM_P1;HPM_P2
2024/01/07 00:02:11;;;;;;;31.67;18.05;;;;;;;-143.54;100.00;59916.91;5073877;28;20461;-77
2024/01/07 00:04:37;;;;;;;33.17;19.75;;;;;;;-143.54;100.00;59916.91;5077282;28;20040;-77
2024/01/07 00:07:04;;;;;;;34.30;19.13;;;;;;;-143.54;100.00;59916.91;5073790;28;20021;-77
2024/01/07 00:09:29;;;;;;;32.75;17.83;;;;;;;-143.54;100.00;59916.91;5076243;28;20036;-77
2024/01/07 00:11:55;;;;;;;34.70;19.38;;;;;;;-143.54;100.00;59916.91;5074686;28;20089;-77
2024/01/07 00:14:20;;;;;;;33.75;18.67;;;;;;;-143.54;100.00;59916.91;5076464;28;20103;-77
2024/01/07 00:16:45;;;;;;;33.58;18.92;;;;;;;-143.54;100.00;59916.91;5073146;28;20140;-77
2024/01/07 00:19:11;;;;;;;38.67;20.17;;;;;;;-143.54;100.00;59916.91;5074127;28;20037;-77
2024/01/07 00:21:36;;;;;;;34.78;19.38;;;;;;;-143.54;100.00;59916.91;5070657;28;20068;-77
2024/01/07 00:24:01;;;;;;;36.42;20.15;;;;;;;-143.54;100.00;59916.91;5077469;28;20034;-77
2024/01/07 00:26:27;;;;;;;34.13;19.40;;;;;;;-143.54;100.00;59916.91;5069306;28;20473;-77
2024/01/07 00:28:52;;;;;;;36.20;19.83;;;;;;;-143.54;100.00;59916.91;5077057;28;20028;-77
2024/01/07 00:31:17;;;;;;;37.67;20.17;;;;;;;-143.54;100.00;59916.91;5074421;28;20056;-77
2024/01/07 00:33:42;;;;;;;36.53;19.38;;;;;;;-143.54;100.00;59916.91;5075109;28;20036;-77
2024/01/07 00:36:08;;;;;;;35.28;19.73;;;;;;;-143.54;100.00;59916.91;5077797;28;20492;-77
2024/01/07 00:38:33;;;;;;;36.58;19.75;;;;;;;-143.54;100.00;59916.91;5075280;28;20040;-77
2024/01/07 00:40:59;;;;;;;34.00;19.38;;;;;;;-143.54;100.00;59916.91;5077555;28;20028;-77
2024/01/07 00:43:24;;;;;;;31.27;18.45;;;;;;;-143.54;100.00;59916.91;5082568;28;20134;-77
2024/01/07 00:45:49;;;;;;;34.00;19.52;;;;;;;-143.54;100.00;59916.91;5075304;28;20384;-77
2024/01/07 00:48:15;;;;;;;36.92;20.23;;;;;;;-143.54;100.00;59916.91;5076749;28;20472;-77
2024/01/07 00:50:40;;;;;;;33.30;19.52;;;;;;;-143.54;100.00;59916.91;5075039;28;20380;-77
2024/01/07 00:53:05;;;;;;;32.55;19.67;;;;;;;-143.54;100.00;59916.91;5069886;28;20059;-77
2024/01/07 00:55:31;;;;;;;34.83;19.15;;;;;;;-143.54;100.00;59916.91;5072014;28;20388;-77
2024/01/07 00:57:56;;;;;;;29.65;18.08;;;;;;;-143.54;100.00;59916.91;5075655;28;20040;-77
2024/01/07 01:00:22;;;;;;;30.23;18.23;;;;;;;-143.54;100.00;59916.91;5075267;28;20032;-77
2024/01/07 01:02:47;;;;;;;33.08;19.02;;;;;;;-143.54;100.00;59916.91;5077704;28;20167;-77
2024/01/07 01:05:13;;;;;;;32.85;19.27;;;;;;;-143.54;100.00;59916.91;5080586;28;20017;-77
2024/01/07 01:07:38;;;;;;;27.20;16.95;;;;;;;-143.54;100.00;59916.91;5071099;28;20036;-77
2024/01/07 01:10:04;;;;;;;28.38;16.90;;;;;;;-143.54;100.00;59916.91;5076315;28;20039;-77
2024/01/07 01:12:29;;;;;;;26.52;16.45;;;;;;;-143.54;100.00;59916.91;5067984;28;20024;-77
2024/01/07 01:14:55;;;;;;;24.48;15.57;;;;;;;-143.54;100.00;59916.91;5068618;28;20035;-77
2024/01/07 01:17:20;;;;;;;24.15;15.15;;;;;;;-143.54;100.00;59916.91;5076521;28;20090;-77
2024/01/07 01:19:46;;;;;;;27.08;16.08;;;;;;;-143.54;100.00;59916.91;5074032;28;20066;-77
2024/01/07 01:22:11;;;;;;;26.02;15.90;;;;;;;-143.54;100.00;59916.91;5075331;28;20016;-77
2024/01/07 01:24:36;;;;;;;28.23;17.02;;;;;;;-143.54;100.00;59916.91;5067680;28;20578;-77
2024/01/07 01:27:01;;;;;;;27.00;17.48;;;;;;;-143.54;100.00;59916.91;5074644;28;20035;-77
2024/01/07 01:29:27;;;;;;;28.40;16.85;;;;;;;-143.54;100.00;59916.91;5080882;28;20050;-77
2024/01/07 01:31:53;;;;;;;27.33;16.08;;;;;;;-143.54;100.00;59916.91;5077911;28;20033;-77
2024/01/07 01:34:19;;;;;;;25.65;16.10;;;;;;;-143.54;100.00;59916.91;5078951;28;20422;-77
2024/01/07 01:36:44;;;;;;;26.65;16.95;;;;;;;-143.54;100.00;59916.91;5076821;28;20025;-77
2024/01/07 01:39:09;;;;;;;26.85;16.40;;;;;;;-143.54;100.00;59916.91;5074112;28;20024;-77
2024/01/07 01:41:34;;;;;;;25.98;16.30;;;;;;;-143.54;100.00;59916.91;5069390;28;20044;-77
2024/01/07 01:44:01;;;;;;;28.60;17.20;;;;;;;-143.54;100.00;59916.91;5078949;28;20108;-77
2024/01/07 01:46:28;;;;;;;30.80;18.38;;;;;;;-143.54;100.00;59916.91;5077171;28;20077;-77
2024/01/07 01:48:54;;;;;;;27.98;17.08;;;;;;;-143.54;100.00;59916.91;5074325;28;20039;-76
2024/01/07 01:51:20;;;;;;;28.83;17.73;;;;;;;-143.54;100.00;59916.91;5073425;28;20376;-77
2024/01/07 01:53:47;;;;;;;31.73;18.42;;;;;;;-143.54;100.00;59916.91;5067490;28;20035;-77
2024/01/07 01:56:13;;;;;;;33.55;19.73;;;;;;;-143.54;100.00;59916.91;5068139;28;20033;-77
2024/01/07 01:58:38;;;;;;;37.17;20.60;;;;;;;-143.54;100.00;59916.91;5072330;28;20454;-77
2024/01/07 02:01:04;;;;;;;35.35;19.33;;;;;;;-143.54;100.00;59916.91;5072661;28;20016;-77
2024/01/07 02:03:29;;;;;;;38.05;21.02;;;;;;;-143.54;100.00;59916.91;5071339;28;20090;-78
2024/01/07 02:05:57;;;;;;;36.40;19.85;;;;;;;-143.54;100.00;59916.91;5072687;28;20033;-77
2024/01/07 02:08:23;;;;;;;37.30;20.92;;;;;;;-143.54;100.00;59916.91;5071701;28;20111;-77
2024/01/07 02:10:48;;;;;;;35.88;19.48;;;;;;;-143.54;100.00;59916.91;5071185;28;20115;-77
2024/01/07 02:13:13;;;;;;;34.05;19.75;;;;;;;-143.54;100.00;59916.91;5072360;28;20025;-77
2024/01/07 02:15:39;;;;;;;35.28;20.15;;;;;;;-143.54;100.00;59916.91;5072022;28;20437;-77
2024/01/07 02:18:04;;;;;;;35.70;20.90;;;;;;;-143.54;100.00;59916.91;5069865;28;20028;-77
2024/01/07 02:20:30;;;;;;;37.13;20.70;;;;;;;-143.54;100.00;59916.91;5068484;28;20032;-78
2024/01/07 02:22:57;;;;;;;36.65;19.73;;;;;;;-143.54;100.00;59916.91;5075002;28;20038;-77
2024/01/07 02:25:23;;;;;;;38.65;20.92;;;;;;;-143.54;100.00;59916.91;5072764;28;20029;-77
2024/01/07 02:27:48;;;;;;;41.80;21.65;;;;;;;-143.54;100.00;59916.91;5077132;28;20455;-77
2024/01/07 02:30:13;;;;;;;39.17;21.42;;;;;;;-143.54;100.00;59916.91;5074003;28;20437;-77
2024/01/07 02:32:39;;;;;;;36.80;19.05;;;;;;;-143.54;100.00;59916.91;5078265;28;20024;-77
2024/01/07 02:35:06;;;;;;;39.13;20.98;;;;;;;-143.54;100.00;59916.91;5072356;28;20532;-77
2024/01/07 02:37:31;;;;;;;35.83;20.73;;;;;;;-143.54;100.00;59916.91;5071433;28;20108;-77
2024/01/07 02:39:57;;;;;;;37.10;20.17;;;;;;;-143.54;100.00;59916.91;5078630;28;20052;-77
2024/01/07 02:42:22;;;;;;;37.90;21.42;;;;;;;-143.54;100.00;59916.91;5072064;28;20017;-78
2024/01/07 02:44:47;;;;;;;37.95;20.90;;;;;;;-143.54;100.00;59916.91;5079072;28;20022;-77
2024/01/07 02:47:12;;;;;;;37.75;20.77;;;;;;;-143.54;100.00;59916.91;5070673;28;20111;-77
2024/01/07 02:49:38;;;;;;;41.33;20.42;;;;;;;-143.54;100.00;59916.91;5076012;28;20085;-77
2024/01/07 02:52:03;;;;;;;41.08;20.52;;;;;;;-143.54;100.00;59916.91;5072143;28;20028;-77
2024/01/07 02:54:29;;;;;;;37.70;21.35;;;;;;;-143.54;100.00;59916.91;5071095;28;20038;-77
2024/01/07 02:56:54;;;;;;;37.53;21.55;;;;;;;-143.54;100.00;59916.91;5075586;28;20510;-77
2024/01/07 02:59:20;;;;;;;42.80;22.02;;;;;;;-143.54;100.00;59916.91;5077168;28;20025;-77
2024/01/07 03:01:46;;;;;;;50.55;23.30;;;;;;;-143.54;100.00;59916.91;5075461;28;20097;-77
2024/01/07 03:04:13;;;;;;;46.47;22.75;;;;;;;-143.54;100.00;59916.91;5077751;28;20028;-77
2024/01/07 03:06:39;;;;;;;50.13;23.27;;;;;;;-143.54;100.00;59916.91;5071338;28;20031;-77
2024/01/07 03:09:04;;;;;;;46.83;23.90;;;;;;;-143.54;100.00;59916.91;5074768;28;20110;-77
2024/01/07 03:11:29;;;;;;;47.63;23.38;;;;;;;-143.54;100.00;59916.91;5070797;28;20048;-77
2024/01/07 03:13:55;;;;;;;53.70;22.95;;;;;;;-143.54;100.00;59916.91;5071303;28;20036;-77
2024/01/07 03:16:22;;;;;;;50.67;24.90;;;;;;;-143.54;100.00;59916.91;5070607;28;20203;-77
2024/01/07 03:18:47;;;;;;;52.72;25.15;;;;;;;-143.54;100.00;59916.91;5072658;28;20090;-77
2024/01/07 03:21:23;;;;;;;54.17;29.20;;;;;;;-143.54;100.00;59916.91;5070192;28;20025;-77
2024/01/07 03:23:50;;;;;;;50.53;24.77;;;;;;;-143.54;100.00;59916.91;5070210;28;20474;-77
2024/01/07 03:26:17;;;;;;;53.45;24.25;;;;;;;-143.54;100.00;59916.91;5068384;28;20111;-77
2024/01/07 03:28:42;;;;;;;57.20;27.35;;;;;;;-143.54;100.00;59916.91;5070684;28;20055;-77
2024/01/07 03:31:09;;;;;;;53.58;26.45;;;;;;;-143.54;100.00;59916.91;5069517;28;20068;-77
2024/01/07 03:33:37;;;;;;;55.15;25.23;;;;;;;-143.54;100.00;59916.91;5075432;28;20066;-77
2024/01/07 03:36:09;;;;;;;55.63;26.77;;;;;;;-143.54;100.00;59916.91;5074876;28;20103;-77
2024/01/07 03:38:34;;;;;;;58.88;27.20;;;;;;;-143.54;100.00;59916.91;5068204;28;20070;-77
2024/01/07 03:41:00;;;;;;;46.85;22.35;;;;;;;-143.54;100.00;59916.91;5067039;28;20024;-77
2024/01/07 03:43:25;;;;;;;56.55;26.35;;;;;;;-143.54;100.00;59916.91;5068558;28;20027;-77
2024/01/07 03:45:50;;;;;;;55.70;26.13;;;;;;;-143.54;100.00;59916.91;5076995;28;20531;-77
2024/01/07 03:48:16;;;;;;;50.53;26.02;;;;;;;-143.54;100.00;59916.91;5072549;28;20029;-77
2024/01/07 03:50:41;;;;;;;56.17;26.23;;;;;;;-143.54;100.00;59916.91;5068277;28;20024;-76
2024/01/07 03:53:06;;;;;;;54.70;27.17;;;;;;;-143.54;100.00;59916.91;5071490;28;20103;-77
2024/01/07 03:55:31;;;;;;;54.85;27.15;;;;;;;-143.54;100.00;59916.91;5072804;28;20048;-77
2024/01/07 03:57:57;;;;;;;49.70;24.85;;;;;;;-143.54;100.00;59916.91;5075865;28;20020;-77
2024/01/07 04:00:22;;;;;;;43.67;24.00;;;;;;;-143.54;100.00;59916.91;5073893;28;20032;-77
2024/01/07 04:02:47;;;;;;;50.97;26.75;;;;;;;-143.54;100.00;59916.91;5075469;28;20025;-77
2024/01/07 04:05:14;;;;;;;48.60;24.23;;;;;;;-143.54;100.00;59916.91;5068573;28;20033;-77
2024/01/07 04:07:40;;;;;;;43.60;22.40;;;;;;;-143.54;100.00;59916.91;5079466;28;20031;-77
2024/01/07 04:10:06;;;;;;;52.03;24.63;;;;;;;-143.54;100.00;59916.91;5081274;28;20032;-76
2024/01/07 04:12:31;;;;;;;44.05;23.17;;;;;;;-143.54;100.00;59916.91;5079499;28;20020;-77
2024/01/07 04:14:56;;;;;;;36.30;19.73;;;;;;;-143.54;100.00;59916.91;5081900;28;20024;-77
2024/01/07 04:17:23;;;;;;;45.03;24.80;;;;;;;-143.54;100.00;59916.91;5077519;28;20028;-77
2024/01/07 04:19:49;;;;;;;41.13;22.05;;;;;;;-143.54;100.00;59916.91;5072586;28;20056;-77
2024/01/07 04:22:14;;;;;;;40.45;21.20;;;;;;;-143.54;100.00;59916.91;5070182;28;20051;-77
2024/01/07 04:24:42;;;;;;;46.17;23.10;;;;;;;-143.54;100.00;59916.91;5078547;28;20062;-77
2024/01/07 04:27:08;;;;;;;40.08;22.88;;;;;;;-143.54;100.00;59916.91;5074919;28;20028;-76
2024/01/07 04:29:33;;;;;;;44.03;22.83;;;;;;;-143.54;100.00;59916.91;5077559;28;20511;-76
2024/01/07 04:31:58;;;;;;;44.00;22.63;;;;;;;-143.54;100.00;59916.91;5084651;28;20539;-76
2024/01/07 04:34:24;;;;;;;42.42;21.55;;;;;;;-143.54;100.00;59916.91;5074763;28;20070;-76
2024/01/07 04:36:49;;;;;;;37.78;20.73;;;;;;;-143.54;100.00;59916.91;5079325;28;20035;-77
2024/01/07 04:39:15;;;;;;;41.33;22.25;;;;;;;-143.54;100.00;59916.91;5066755;28;20044;-76
2024/01/07 04:41:41;;;;;;;36.58;20.15;;;;;;;-143.54;100.00;59916.91;5082940;28;20519;-76
2024/01/07 04:44:07;;;;;;;36.38;20.13;;;;;;;-143.54;100.00;59916.91;5077124;28;20040;-76
2024/01/07 04:46:39;;;;;;;41.00;20.52;;;;;;;-143.54;100.00;59916.91;5074245;28;20036;-77
2024/01/07 04:49:05;;;;;;;40.30;20.30;;;;;;;-143.54;100.00;59916.91;5078993;28;20115;-76
2024/01/07 04:51:33;;;;;;;41.47;21.02;;;;;;;-143.54;100.00;59916.91;5075593;28;20131;-77
2024/01/07 04:53:58;;;;;;;36.50;20.83;;;;;;;-143.54;100.00;59916.91;5074378;28;20115;-77
2024/01/07 04:56:23;;;;;;;41.92;21.50;;;;;;;-143.54;100.00;59916.91;5075602;28;20096;-77
2024/01/07 04:58:49;;;;;;;40.28;21.63;;;;;;;-143.54;100.00;59916.91;5081539;28;20039;-77
2024/01/07 05:01:14;;;;;;;36.40;18.58;;;;;;;-143.54;100.00;59916.91;5073412;28;20468;-77
2024/01/07 05:03:39;;;;;;;36.92;19.83;;;;;;;-143.54;100.00;59916.91;5080815;28;20032;-77
2024/01/07 05:06:05;;;;;;;36.85;19.45;;;;;;;-143.54;100.00;59916.91;5076839;28;20117;-77
2024/01/07 05:08:30;;;;;;;39.30;20.85;;;;;;;-143.54;100.00;59916.91;5074110;28;20425;-77
2024/01/07 05:10:56;;;;;;;40.38;21.33;;;;;;;-143.54;100.00;59916.91;5075714;28;20029;-76
2024/01/07 05:13:21;;;;;;;39.38;21.10;;;;;;;-143.54;100.00;59916.91;5079076;28;20040;-77
2024/01/07 05:15:53;;;;;;;34.58;19.83;;;;;;;-143.54;100.00;59916.91;5072388;28;20024;-76
2024/01/07 05:18:25;;;;;;;38.78;19.92;;;;;;;-143.54;100.00;59916.91;5069815;28;20047;-77
2024/01/07 05:20:51;;;;;;;32.65;18.83;;;;;;;-143.54;100.00;59916.91;5071283;28;20063;-76
2024/01/07 05:23:16;;;;;;;31.92;19.00;;;;;;;-143.54;100.00;59916.91;5069231;28;20028;-76
2024/01/07 05:25:43;;;;;;;34.22;18.83;;;;;;;-143.54;100.00;59916.91;5072803;28;20028;-77
2024/01/07 05:28:08;;;;;;;27.48;16.83;;;;;;;-143.54;100.00;59916.91;5071923;28;20112;-77
2024/01/07 05:30:34;;;;;;;24.73;15.90;;;;;;;-143.54;100.00;59916.91;5074053;28;20123;-77
2024/01/07 05:32:59;;;;;;;25.13;15.40;;;;;;;-143.54;100.00;59916.91;5080704;28;20032;-76
2024/01/07 05:35:24;;;;;;;23.15;14.30;;;;;;;-143.54;100.00;59916.91;5072700;28;20024;-76
2024/01/07 05:37:50;;;;;;;23.70;14.13;;;;;;;-143.54;100.00;59916.91;5081544;28;20426;-77
2024/01/07 05:40:15;;;;;;;22.35;14.60;;;;;;;-143.54;100.00;59916.91;5073998;28;20029;-77
2024/01/07 05:42:40;;;;;;;22.13;14.45;;;;;;;-143.54;100.00;59916.91;5077829;28;20436;-77
2024/01/07 05:45:06;;;;;;;22.20;14.02;;;;;;;-143.54;100.00;59916.91;5081402;28;20027;-77
2024/01/07 05:47:31;;;;;;;22.23;14.50;;;;;;;-143.54;100.00;59916.91;5076231;28;20051;-76
2024/01/07 05:49:57;;;;;;;23.88;14.35;;;;;;;-143.54;100.00;59916.91;5084725;28;20032;-76
2024/01/07 05:52:22;;;;;;;20.40;13.80;;;;;;;-143.54;100.00;59916.91;5075912;28;20028;-77
2024/01/07 05:54:48;;;;;;;21.15;14.32;;;;;;;-143.54;100.00;59916.91;5082463;28;20032;-77
2024/01/07 05:57:13;;;;;;;21.23;14.77;;;;;;;-143.54;100.00;59916.91;5074014;28;20035;-76
2024/01/07 05:59:38;;;;;;;20.45;13.88;;;;;;;-143.54;100.00;59916.91;5073524;28;20105;-76
2024/01/07 06:02:03;;;;;;;18.95;13.02;;;;;;;-143.54;100.00;59916.91;5081313;28;20031;-76
2024/01/07 06:04:29;;;;;;;21.27;14.18;;;;;;;-143.54;100.00;59916.91;5074787;28;20829;-76
2024/01/07 06:06:54;;;;;;;22.13;14.13;;;;;;;-143.54;100.00;59916.91;5077119;28;20051;-76
2024/01/07 06:09:20;;;;;;;21.02;14.02;;;;;;;-143.54;100.00;59916.91;5067501;28;20384;-77
2024/01/07 06:11:46;;;;;;;21.20;13.82;;;;;;;-143.54;100.00;59916.91;5076383;28;20068;-76
2024/01/07 06:14:11;;;;;;;21.98;14.25;;;;;;;-143.54;100.00;59916.91;5073102;28;20044;-76
2024/01/07 06:16:37;;;;;;;25.63;14.85;;;;;;;-143.54;100.00;59916.91;5058851;28;20057;-76
2024/01/07 06:19:02;;;;;;;19.00;13.57;;;;;;;-143.54;100.00;59916.91;5068253;28;20499;-77
2024/01/07 06:21:27;;;;;;;21.05;14.73;;;;;;;-143.54;100.00;59916.91;5072086;28;20017;-76
2024/01/07 06:23:53;;;;;;;19.65;13.25;;;;;;;-143.54;100.00;59916.91;5074551;28;20548;-76
2024/01/07 06:26:18;;;;;;;19.60;12.95;;;;;;;-143.54;100.00;59916.91;5071670;28;20024;-77
2024/01/07 06:28:43;;;;;;;20.33;12.88;;;;;;;-143.54;100.00;59916.91;5073028;28;20128;-76
2024/01/07 06:31:09;;;;;;;19.08;13.15;;;;;;;-143.54;100.00;59916.91;5074328;28;20044;-77
2024/01/07 06:33:34;;;;;;;19.30;12.88;;;;;;;-143.54;100.00;59916.91;5074009;28;20024;-76
2024/01/07 06:36:00;;;;;;;17.55;11.95;;;;;;;-143.54;100.00;59916.91;5076673;28;20063;-76
2024/01/07 06:38:25;;;;;;;19.00;13.80;;;;;;;-143.54;100.00;59916.91;5073982;28;20021;-76
2024/01/07 06:40:51;;;;;;;21.13;13.45;;;;;;;-143.54;100.00;59916.91;5080160;28;20047;-76
2024/01/07 06:43:16;;;;;;;19.42;13.48;;;;;;;-143.54;100.00;59916.91;5076857;28;20049;-76
2024/01/07 06:45:43;;;;;;;19.38;12.55;;;;;;;-143.54;100.00;59916.91;5072093;28;20027;-77
2024/01/07 06:48:08;;;;;;;20.15;13.52;;;;;;;-143.54;100.00;59916.91;5072442;28;20460;-76
2024/01/07 06:50:34;;;;;;;18.45;13.20;;;;;;;-143.54;100.00;59916.91;5060005;28;20032;-76
2024/01/07 06:52:59;;;;;;;20.25;13.80;;;;;;;-143.54;100.00;59916.91;5072908;28;20474;-76
2024/01/07 06:55:24;;;;;;;21.05;13.65;;;;;;;-143.54;100.00;59916.91;5074533;28;20028;-77
2024/01/07 06:57:50;;;;;;;20.45;13.85;;;;;;;-143.54;100.00;59916.91;5078156;28;20034;-76
2024/01/07 07:00:15;;;;;;;19.33;13.20;;;;;;;-143.54;100.00;59916.91;5069501;28;20032;-76
2024/01/07 07:02:41;;;;;;;20.90;14.02;;;;;;;-143.54;100.00;59916.91;5069381;28;20025;-77
2024/01/07 07:05:06;;;;;;;20.80;14.70;;;;;;;-143.54;100.00;59916.91;5070214;28;20021;-76
2024/01/07 07:07:31;;;;;;;20.88;14.57;;;;;;;-143.54;100.00;59916.91;5073768;28;20066;-77
2024/01/07 07:09:57;;;;;;;20.25;13.20;;;;;;;-143.54;100.00;59916.91;5071966;28;20028;-76
2024/01/07 07:12:22;;;;;;;20.27;13.27;;;;;;;-143.54;100.00;59916.91;5076808;28;20028;-76
2024/01/07 07:14:47;;;;;;;21.92;15.20;;;;;;;-143.54;100.00;59916.91;5072538;28;20037;-77
2024/01/07 07:17:13;;;;;;;20.80;14.45;;;;;;;-143.54;100.00;59916.91;5077924;28;20024;-77
2024/01/07 07:19:39;;;;;;;19.83;13.68;;;;;;;-143.54;100.00;59916.91;5073307;28;20056;-76
2024/01/07 07:22:04;;;;;;;22.70;14.45;;;;;;;-143.54;100.00;59916.91;5076254;28;20024;-76
2024/01/07 07:24:29;;;;;;;27.35;16.25;;;;;;;-143.54;100.00;59916.91;5075272;28;20047;-77
2024/01/07 07:26:55;;;;;;;25.85;16.05;;;;;;;-143.54;100.00;59916.91;5071035;28;20060;-76
2024/01/07 07:29:20;;;;;;;24.88;15.23;;;;;;;-143.54;100.00;59916.91;5076779;28;20476;-76
2024/01/07 07:31:45;;;;;;;23.52;14.82;;;;;;;-143.54;100.00;59916.91;5074528;28;20032;-77
2024/01/07 07:34:11;;;;;;;20.77;14.38;;;;;;;-143.54;100.00;59916.91;5079628;28;20110;-76
2024/01/07 07:36:37;;;;;;;20.00;13.80;;;;;;;-143.54;100.00;59916.91;5068028;28;20075;-76
2024/01/07 07:39:02;;;;;;;21.17;13.70;;;;;;;-143.54;100.00;59916.91;5069763;28;20024;-76
2024/01/07 07:41:28;;;;;;;21.63;13.98;;;;;;;-143.54;100.00;59916.91;5075929;28;20024;-76
2024/01/07 07:43:54;;;;;;;20.60;13.60;;;;;;;-143.54;100.00;59916.91;5064579;28;20024;-76
2024/01/07 07:46:19;;;;;;;24.05;14.27;;;;;;;-143.54;100.00;59916.91;5073346;28;20487;-76
2024/01/07 07:48:45;;;;;;;21.13;14.38;;;;;;;-143.54;100.00;59916.91;5076039;28;20494;-77
2024/01/07 07:51:10;;;;;;;23.23;14.25;;;;;;;-143.54;100.00;59916.91;5074560;28;20024;-76
2024/01/07 07:53:39;;;;;;;21.42;13.82;;;;;;;-143.54;100.00;59916.91;5071229;28;20040;-76
2024/01/07 07:56:05;;;;;;;21.45;14.57;;;;;;;-143.54;100.00;59916.91;5079330;28;20109;-76
2024/01/07 07:58:30;;;;;;;22.27;14.38;;;;;;;-143.54;100.00;59916.91;5076976;28;20497;-76
2024/01/07 08:00:55;;;;;;;23.58;13.35;;;;;;;-143.54;100.00;59916.91;5074643;28;20044;-76
2024/01/07 08:03:21;;;;;;;20.63;13.43;;;;;;;-143.54;100.00;59916.91;5077776;28;20027;-77
2024/01/07 08:05:46;;;;;;;21.17;13.85;;;;;;;-143.54;100.00;59916.91;5074895;28;20028;-76
2024/01/07 08:08:11;;;;;;;21.80;13.88;;;;;;;-143.54;100.00;59916.91;5077188;28;20460;-77
2024/01/07 08:10:37;;;;;;;24.40;13.70;;;;;;;-143.54;100.00;59916.91;5073768;28;20040;-77
2024/01/07 08:13:02;;;;;;;24.42;14.02;;;;;;;-143.54;100.00;59916.91;5071343;28;20476;-77
2024/01/07 08:15:27;;;;;;;22.75;13.57;;;;;;;-143.54;100.00;59916.91;5073524;28;20472;-77
2024/01/07 08:17:53;;;;;;;20.55;13.80;;;;;;;-143.54;100.00;59916.91;5077068;28;20040;-76
2024/01/07 08:20:19;;;;;;;22.23;13.48;;;;;;;-143.54;100.00;59916.91;5071759;28;20029;-76
2024/01/07 08:22:44;;;;;;;22.30;12.35;;;;;;;-143.54;100.00;59916.91;5078108;28;20032;-76
2024/01/07 08:25:09;;;;;;;21.83;13.93;;;;;;;-143.54;100.00;59916.91;5067633;28;20017;-77
2024/01/07 08:27:37;;;;;;;23.05;13.55;;;;;;;-143.54;100.00;59916.91;5072252;28;20041;-76
2024/01/07 08:30:03;;;;;;;19.98;13.82;;;;;;;-143.54;100.00;59916.91;5078016;28;20064;-76
2024/01/07 08:32:28;;;;;;;26.35;14.63;;;;;;;-143.54;100.00;59916.91;5070102;28;20020;-76
2024/01/07 08:34:54;;;;;;;27.42;15.02;;;;;;;-143.54;100.00;59916.91;5077189;28;20483;-76
2024/01/07 08:37:20;;;;;;;21.25;14.40;;;;;;;-143.54;100.00;59916.91;5068663;28;20021;-76
2024/01/07 08:39:46;;;;;;;21.35;13.15;;;;;;;-143.54;100.00;59916.91;5074328;28;20035;-76
2024/01/07 08:42:11;;;;;;;20.35;13.77;;;;;;;-143.54;100.00;59916.91;5072110;28;20040;-76
2024/01/07 08:44:36;;;;;;;22.60;14.23;;;;;;;-143.54;100.00;59916.91;5063456;28;20111;-76
2024/01/07 08:47:01;;;;;;;21.13;13.70;;;;;;;-143.54;100.00;59916.91;5068381;28;20029;-76
2024/01/07 08:49:29;;;;;;;22.73;14.07;;;;;;;-143.54;100.00;59916.91;5077835;28;20034;-77
2024/01/07 08:51:56;;;;;;;18.90;12.80;;;;;;;-143.54;100.00;59916.91;5078169;28;20040;-77
2024/01/07 08:54:22;;;;;;;20.05;12.65;;;;;;;-143.54;100.00;59916.91;5079677;28;20037;-77
2024/01/07 08:56:47;;;;;;;19.23;12.95;;;;;;;-143.54;100.00;59916.91;5083538;28;20020;-77
2024/01/07 08:59:12;;;;;;;20.20;12.68;;;;;;;-143.54;100.00;59916.91;5077983;28;20396;-76
2024/01/07 09:01:39;;;;;;;20.77;13.20;;;;;;;-143.54;100.00;59916.91;5077369;28;20033;-77
2024/01/07 09:04:10;;;;;;;18.02;13.32;;;;;;;-143.54;100.00;59916.91;5079277;28;20017;-77
2024/01/07 09:06:37;;;;;;;21.00;13.70;;;;;;;-143.54;100.00;59916.91;5076408;28;20036;-77
2024/01/07 09:09:06;;;;;;;21.63;13.32;;;;;;;-143.54;100.00;59916.91;5074382;28;20024;-77
2024/01/07 09:11:36;;;;;;;19.33;13.43;;;;;;;-143.54;100.00;59916.91;5076119;28;20067;-77
2024/01/07 09:14:05;;;;;;;21.15;12.73;;;;;;;-143.54;100.00;59916.91;5079985;28;20112;-77
2024/01/07 09:16:34;;;;;;;18.38;12.77;;;;;;;-143.54;100.00;59916.91;5075942;28;20046;-77
2024/01/07 09:18:59;;;;;;;20.77;14.02;;;;;;;-143.54;100.00;59916.91;5066781;28;20544;-77
2024/01/07 09:21:25;;;;;;;19.23;12.82;;;;;;;-143.54;100.00;59916.91;5076315;28;20116;-77
2024/01/07 09:23:51;;;;;;;17.10;12.45;;;;;;;-143.54;100.00;59916.91;5070626;28;20032;-77
2024/01/07 09:26:17;;;;;;;18.63;12.65;;;;;;;-143.54;100.00;59916.91;5069976;28;20127;-78
2024/01/07 09:28:43;;;;;;;18.20;11.77;;;;;;;-143.54;100.00;59916.91;5073260;28;20036;-77
2024/01/07 09:31:08;;;;;;;15.60;11.57;;;;;;;-143.54;100.00;59916.91;5079929;28;20045;-76
2024/01/07 09:33:37;;;;;;;16.48;11.02;;;;;;;-143.54;100.00;59916.91;5076760;28;20032;-77
2024/01/07 09:36:07;;;;;;;17.73;12.32;;;;;;;-143.54;100.00;59916.91;5083776;28;20028;-76
2024/01/07 09:38:33;;;;;;;16.92;10.95;;;;;;;-143.54;100.00;59916.91;5078365;28;20036;-77
2024/01/07 09:40:59;;;;;;;17.90;12.57;;;;;;;-143.54;100.00;59916.91;5082526;28;20081;-77
2024/01/07 09:43:24;;;;;;;17.88;12.35;;;;;;;-143.54;100.00;59916.91;5077774;28;20522;-77
2024/01/07 09:45:51;;;;;;;16.67;11.43;;;;;;;-143.54;100.00;59916.91;5082578;28;20039;-79
2024/01/07 09:48:17;;;;;;;18.20;12.25;;;;;;;-143.54;100.00;59916.91;5079117;28;20028;-74
2024/01/07 09:50:42;;;;;;;16.60;11.82;;;;;;;-143.54;100.00;59916.91;5076101;28;20392;-75
2024/01/07 09:53:14;;;;;;;16.63;11.82;;;;;;;-143.54;100.00;59916.91;5074837;28;20096;-77
2024/01/07 09:55:51;;;;;;;17.70;12.25;;;;;;;-143.54;100.00;59916.91;5073857;28;20029;-76
2024/01/07 09:58:16;;;;;;;17.52;12.55;;;;;;;-143.54;100.00;59916.91;5075037;28;20044;-76
2024/01/07 10:00:42;;;;;;;16.98;11.30;;;;;;;-143.54;100.00;59916.91;5074618;28;20025;-76
2024/01/07 10:03:07;;;;;;;15.35;11.45;;;;;;;-143.54;100.00;59916.91;5073314;28;20020;-76
2024/01/07 10:05:32;;;;;;;15.40;11.23;;;;;;;-143.54;100.00;59916.91;5075207;28;20035;-75
2024/01/07 10:07:58;;;;;;;14.20;10.85;;;;;;;-143.54;100.00;59916.91;5078521;28;20490;-76
2024/01/07 10:10:23;;;;;;;16.17;11.38;;;;;;;-143.54;100.00;59916.91;5074561;28;20520;-75
2024/01/07 10:12:48;;;;;;;14.48;10.95;;;;;;;-143.54;100.00;59916.91;5075490;28;20055;-75
2024/01/07 10:15:14;;;;;;;14.60;11.02;;;;;;;-143.54;100.00;59916.91;5073545;28;20099;-75
2024/01/07 10:17:43;;;;;;;15.77;10.88;;;;;;;-143.54;100.00;59916.91;5079683;28;20476;-75
2024/01/07 10:20:12;;;;;;;15.43;11.30;;;;;;;-143.54;100.00;59916.91;5072854;28;20020;-75
2024/01/07 10:22:38;;;;;;;15.00;10.88;;;;;;;-143.54;100.00;59916.91;5074466;28;20024;-75
2024/01/07 10:25:04;;;;;;;15.70;11.73;;;;;;;-143.54;100.00;59916.91;5081054;28;20170;-75
2024/01/07 10:27:29;;;;;;;16.02;11.80;;;;;;;-143.54;100.00;59916.91;5078558;28;20020;-75
2024/01/07 10:29:58;;;;;;;16.83;11.50;;;;;;;-143.54;100.00;59916.91;5081516;28;20055;-75
2024/01/07 10:32:23;;;;;;;16.98;12.27;;;;;;;-143.54;100.00;59916.91;5076900;28;20025;-75
2024/01/07 10:34:52;;;;;;;15.52;11.30;;;;;;;-143.54;100.00;59916.91;5082686;28;20020;-75
2024/01/07 10:37:19;;;;;;;15.13;10.70;;;;;;;-143.54;100.00;59916.91;5073658;28;20029;-74
2024/01/07 10:39:44;;;;;;;12.82;9.43;;;;;;;-143.54;100.00;59916.91;5082704;28;20482;-74
2024/01/07 10:42:12;;;;;;;15.98;11.55;;;;;;;-143.54;100.00;59916.91;5074357;28;20104;-74
2024/01/07 10:44:38;;;;;;;14.60;11.25;;;;;;;-143.54;100.00;59916.91;5080712;28;20387;-74
2024/01/07 10:47:06;;;;;;;16.50;12.25;;;;;;;-143.54;100.00;59916.91;5076006;28;20028;-74
2024/01/07 10:49:32;;;;;;;13.82;10.65;;;;;;;-143.54;100.00;59916.91;5078355;28;20043;-74